National Weather Service Raw Text Product

Displaying AFOS PIL: TAFFOD Received: 2017-11-15 07:20 UTC


339 
FTUS43 KDMX 150720 AAB
TAFFOD
TAF AMD
KFOD 150720Z 1507/1606 25011KT P6SM BKN020 OVC110
     FM150800 29011KT P6SM BKN017
     FM151100 31013KT P6SM SCT100
     FM151500 32012G17KT P6SM SCT030
     FM160100 34006KT P6SM SCT030=